This is the latest recevied weather packets stored in our database for station/object W4TJP. If no packets are shown the sender has not sent any weather packets the latest 1 day(s).
| Time | Temp. | Humidity | Pressure | Rain* | Wind** | Luminosity | Snow |
|---|---|---|---|---|---|---|---|
| 1778036160 | 17.78° C | 72% | 1009.8 hPa | 0 mm | 0 m/s | 0 W/m² | - |
| 1778035856 | 17.78° C | 71% | 1010.2 hPa | 0 mm | 0.45 m/s, 143° | 0 W/m² | - |
| 1778035554 | 17.78° C | 73% | 1010 hPa | 0 mm | 0.45 m/s, 130° | 0 W/m² | - |
| 1778035250 | 17.78° C | 74% | 1010.3 hPa | 0 mm | 0.89 m/s, 106° | 0 W/m² | - |
| 1778034945 | 17.78° C | 74% | 1010.3 hPa | 0 mm | 0 m/s | 0 W/m² | - |
| 1778034644 | 17.22° C | 73% | 1010.4 hPa | 0 mm | 0.89 m/s, 129° | 0 W/m² | - |
| 1778034341 | 16.67° C | 75% | 1010.5 hPa | 0 mm | 0 m/s | 0 W/m² | - |
| 1778034038 | 15.56° C | 84% | 1010.5 hPa | 0 mm | 0 m/s | 0 W/m² | - |
| 1778033735 | 15.56° C | 87% | 1010.4 hPa | 0 mm | 0 m/s | 0 W/m² | - |
| 1778033433 | 15.56° C | 85% | 1010.5 hPa | 0 mm | 0 m/s | 0 W/m² | - |
| 1778033130 | 15.56° C | 85% | 1010.5 hPa | 0 mm | 0 m/s | 0 W/m² | - |
| 1778032827 | 16.11° C | 84% | 1010.4 hPa | 0 mm | 0 m/s | 0 W/m² | - |
| 1778032525 | 16.11° C | 83% | 1010.5 hPa | 0 mm | 0 m/s | 0 W/m² | - |
| 1778032222 | 16.67° C | 80% | 1010.4 hPa | 0 mm | 0 m/s | 0 W/m² | - |
| 1778031919 | 17.22° C | 75% | 1010.2 hPa | 0 mm | 0 m/s | 0 W/m² | - |
| 1778031615 | 18.33° C | 68% | 1010.4 hPa | 0 mm | 0 m/s | 0 W/m² | - |
| 1778031313 | 18.89° C | 64% | 1010 hPa | 0 mm | 0 m/s | 0 W/m² | - |
| 1778031010 | 18.89° C | 59% | 1010.1 hPa | 0 mm | 0.45 m/s, 148° | 0 W/m² | - |
| 1778030705 | 18.89° C | 59% | 1009.8 hPa | 0 mm | 0 m/s | 0 W/m² | - |
| 1778030403 | 18.33° C | 59% | 1009.9 hPa | 0 mm | 0.45 m/s, 151° | 0 W/m² | - |
| 1778030100 | 18.33° C | 61% | 1009.9 hPa | 0 mm | 0 m/s | 0 W/m² | - |
| 1778029796 | 18.33° C | 60% | 1009.7 hPa | 0 mm | 0 m/s | 0 W/m² | - |
| 1778029496 | 18.33° C | 60% | 1009.8 hPa | 0 mm | 0 m/s | 0 W/m² | - |
| 1778029191 | 18.33° C | 59% | 1009.6 hPa | 0 mm | 0 m/s | 0 W/m² | - |
| 1778028889 | 18.33° C | 59% | 1009.6 hPa | 0 mm | 0.45 m/s, 142° | 0 W/m² | - |
* Rain latest hour (hover to see other rain measurements)
** Current wind speed in m/s (hover to see current wind gust speed)